Flight Track Log - Related Links

Times and Time Zones

All times are in EDT time to prevent confusion due to time zone crossing. See the LXJ525 flight status page for this flight to view local times or setup timezone preferences in your user account.

Time Position Orientation Groundspeed Altitude Reporting Facility
EDT Latitude Longitude Course Direction KTS MPH feet Rate Location/Type
Sun 12:02:51 PM 25.8003 -80.2722 77° East 166 191 1,000  Level Miami Center
Sun 12:03:22 PM 25.8072 -80.2400 77° East 206 237 2,600 2,828 Climbing Miami Center
Sun 12:04:18 PM 25.8192 -80.1806 77° East 258 297 5,100 2,845 Climbing Miami Center
Sun 12:05:18 PM 25.8564 -80.1031 62° Northeast 290 334 8,100 3,050 Climbing Miami Center
Sun 12:06:18 PM 25.8978 -80.0233 60° Northeast 295 339 11,200 3,100 Climbing Miami Center
Sun 12:07:18 PM 25.9414 -79.9367 61° Northeast 334 384 14,300 2,323 Climbing Miami Center
Sun 12:08:22 PM 25.9961 -79.8225 62° Northeast 383 441 16,000 850 Climbing Miami Center
Sun 12:09:18 PM 26.0436 -79.7358 59° Northeast 428 493 16,000 1,190 Level Miami Center
Sun 12:10:18 PM 26.0978 -79.6353 59° Northeast 398 458 18,300 2,300 Climbing Miami Center
Sun 12:11:18 PM 26.1561 -79.5417 55° Northeast 376 433 20,600 1,700 Climbing Miami Center
Sun 12:12:18 PM 26.2161 -79.4458 55° Northeast 371 427 21,700 1,300 Climbing Miami Center
Sun 12:13:18 PM 26.2850 -79.3408 54° Northeast 371 427 23,200 1,600 Climbing Miami Center
Sun 12:14:18 PM 26.3428 -79.2469 56° Northeast 383 441 24,900 1,850 Climbing Miami Center
Sun 12:15:18 PM 26.4114 -79.1461 53° Northeast 396 456 26,900 1,950 Climbing Miami Center
Sun 12:16:18 PM 26.5164 -79.1111 17° North 373 429 28,800 1,500 Climbing Miami Center
Sun 12:17:18 PM 26.6333 -79.0994 North 379 436 29,900 1,550 Climbing Miami Center
Sun 12:18:18 PM 26.7528 -79.0783 North 407 468 31,900 2,000 Climbing Miami Center
Sun 12:19:18 PM 26.8700 -79.0619 North 414 476 33,900 1,750 Climbing Miami Center
Sun 12:20:18 PM 26.9894 -79.0478 North 419 482 35,400 1,550 Climbing Miami Center
Sun 12:21:18 PM 27.1172 -79.0247 North 426 490 37,000 1,500 Climbing Miami Center
Sun 12:22:18 PM 27.2258 -79.0081 North 426 490 38,400 1,550 Climbing Miami Center
Sun 12:23:18 PM 27.3578 -78.9894 North 426 490 40,100 1,400 Climbing Miami Center
Sun 12:24:18 PM 27.4750 -78.9728 North 426 490 41,200 1,050 Climbing Miami Center
Sun 12:25:18 PM 27.5822 -78.9303 19° North 415 478 42,200 950 Climbing Miami Center
Sun 12:26:18 PM 27.6786 -78.8875 21° North 415 478 43,100 700 Climbing Miami Center
Sun 12:27:18 PM 27.7878 -78.8447 19° North 410 472 43,600 450 Climbing Miami Center
Sun 12:28:18 PM 27.8950 -78.8019 19° North 410 472 44,000 300 Climbing Miami Center
Sun 12:29:18 PM 27.9981 -78.7497 24° Northeast 403 464 44,200 250 Climbing Miami Center
Sun 12:30:18 PM 28.1092 -78.7092 18° North 408 470 44,500 400 Climbing Miami Center
Sun 12:31:18 PM 28.2222 -78.6756 15° North 413 475 45,000 250 Climbing Miami Center
Sun 12:32:18 PM 28.3336 -78.6303 20° North 413 475 45,000  Level Miami Center
Sun 12:33:18 PM 28.4428 -78.5825 21° North 413 475 45,000  Level Miami Center
Sun 12:34:18 PM 28.5478 -78.5225 27° Northeast 418 481 45,000  Level Miami Center
Sun 12:35:18 PM 28.6589 -78.4650 24° Northeast 418 481 45,000  Level Miami Center
Sun 12:36:18 PM 28.7722 -78.4028 26° Northeast 432 497 45,000 -50 Level Miami Center
Sun 12:37:18 PM 28.8856 -78.3428 25° Northeast 432 497 44,900 -50 Descending Miami Center
Sun 12:38:18 PM 28.9947 -78.2825 26° Northeast 432 497 44,900 50 Level Miami Center
Sun 12:39:18 PM 29.1183 -78.2461 14° North 443 510 45,000 50 Climbing Miami Center
Sun 12:40:18 PM 29.2475 -78.2525 358° North 453 521 45,000  Level Miami Center
Sun 12:41:18 PM 29.3722 -78.2919 345° North 456 525 45,000 -50 Level Miami Center
Sun 12:42:18 PM 29.4844 -78.3436 338° Northwest 442 509 44,900 -50 Descending Miami Center
Sun 12:43:18 PM 29.6008 -78.3953 339° North 442 509 44,900 50 Level Miami Center
Sun 12:44:18 PM 29.7211 -78.4494 339° North 448 516 45,000 41 Climbing Miami Center
Sun 12:45:43 PM 29.8969 -78.5133 343° North 438 504 45,000 -41 Level Jacksonville Center
Sun 12:46:43 PM 30.0197 -78.5581 342° North 442 509 44,900  Descending Jacksonville Center
Sun 12:47:43 PM 30.1244 -78.6325 328° Northwest 452 520 45,000 50 Climbing Jacksonville Center
Sun 12:48:43 PM 30.2314 -78.7169 326° Northwest 458 527 45,000  Level Jacksonville Center
Sun 12:49:43 PM 30.3258 -78.7897 326° Northwest 458 527 45,000  Level Jacksonville Center
Sun 12:50:43 PM 30.4286 -78.8719 325° Northwest 458 527 45,000  Level Jacksonville Center
Sun 12:52:43 PM 30.6567 -79.0267 330° Northwest 466 536 45,000  Level Jacksonville Center
Sun 12:53:43 PM 30.7592 -79.1044 327° Northwest 461 531 45,000  Level Jacksonville Center
Sun 12:54:43 PM 30.8739 -79.1653 336° Northwest 461 531 45,000  Level Jacksonville Center
Sun 12:55:43 PM 30.9958 -79.1969 347° North 455 524 45,000  Level Jacksonville Center
Sun 12:56:43 PM 31.1353 -79.1867 North 442 509 45,000  Level Jacksonville Center
Sun 12:57:43 PM 31.2531 -79.1431 18° North 445 512 45,000 -50 Level Jacksonville Center
Sun 12:58:43 PM 31.3728 -79.0969 18° North 443 510 44,900  Descending Jacksonville Center
Sun 12:59:43 PM 31.4903 -79.0506 19° North 443 510 45,000 50 Climbing Jacksonville Center
Sun 01:00:43 PM 31.6103 -79.0092 16° North 437 503 45,000  Level Jacksonville Center
Sun 01:01:43 PM 31.7369 -78.9892 North 437 503 45,000  Level Jacksonville Center
Sun 01:02:43 PM 31.8619 -78.9789 North 448 516 45,000  Level Jacksonville Center
Sun 01:03:43 PM 31.9908 -78.9686 North 448 516 45,000  Level Jacksonville Center
Sun 01:04:43 PM 32.1136 -78.9561 North 448 516 45,000 -50 Level Jacksonville Center
Sun 01:05:43 PM 32.2361 -78.9286 11° North 448 516 44,900  Descending Jacksonville Center
Sun 01:06:43 PM 32.3514 -78.8794 20° North 443 510 45,000 50 Climbing Jacksonville Center
Sun 01:07:43 PM 32.4683 -78.8200 23° Northeast 443 510 45,000 -50 Level Jacksonville Center
Sun 01:08:43 PM 32.5836 -78.7656 22° Northeast 443 510 44,900  Descending Jacksonville Center
Sun 01:09:43 PM 32.7006 -78.7058 23° Northeast 448 516 45,000  Climbing Jacksonville Center
Sun 01:10:43 PM 32.8175 -78.6486 22° Northeast 448 516 44,900  Descending Jacksonville Center
Sun 01:11:43 PM 32.9286 -78.5939 22° Northeast 442 509 45,000 50 Climbing Jacksonville Center
Sun 01:12:43 PM 33.0456 -78.5361 22° Northeast 442 509 45,000  Level Jacksonville Center
Sun 01:13:43 PM 33.1625 -78.4783 22° Northeast 447 514 45,000  Level Jacksonville Center
Sun 01:14:43 PM 33.2772 -78.4206 23° Northeast 447 514 45,000  Level Jacksonville Center
Sun 01:16:47 PM 33.5069 -78.3061 23° Northeast 442 509 45,000  Level Washington Center
Sun 01:17:48 PM 33.6250 -78.2475 22° Northeast 442 509 45,000  Level Washington Center
Sun 01:18:48 PM 33.7447 -78.2064 16° North 442 509 45,000  Level Washington Center
Sun 01:19:49 PM 33.8706 -78.1856 North 442 509 45,000  Level Washington Center
Sun 01:20:47 PM 33.9983 -78.1594 10° North 452 520 45,000 -51 Level Washington Center
Sun 01:21:47 PM 34.1386 -78.1286 10° North 462 532 44,900 -600 Descending Washington Center
Sun 01:22:47 PM 34.2667 -78.0975 11° North 462 532 43,800 -1,091 Descending Washington Center
Sun 01:23:48 PM 34.3883 -78.0683 11° North 457 526 42,700 -1,033 Descending Washington Center
Sun 01:24:49 PM 34.5119 -78.0394 11° North 451 519 41,700 -1,008 Descending Washington Center
Sun 01:25:47 PM 34.6397 -78.0103 11° North 451 519 40,700 -1,017 Descending Washington Center
Sun 01:26:47 PM 34.7678 -77.9814 10° North 457 526 39,700 -1,850 Descending Washington Center
Sun 01:27:47 PM 34.8872 -77.9494 12° North 446 513 37,000 -942 Descending Washington Center
Sun 01:28:48 PM 35.0150 -77.9200 11° North 446 513 37,800  Climbing Washington Center
Sun 01:29:49 PM 35.1408 -77.8933 10° North 451 519 37,000 -397 Descending Washington Center
Sun 01:30:49 PM 35.2686 -77.8639 11° North 457 526 37,000  Level Washington Center
Sun 01:31:47 PM 35.3986 -77.8344 10° North 462 532 37,000 -153 Level Washington Center
Sun 01:32:47 PM 35.5283 -77.8047 11° North 468 539 36,700 -700 Descending Washington Center
Sun 01:33:47 PM 35.6564 -77.7753 11° North 468 539 35,600 -1,033 Descending Washington Center
Sun 01:34:49 PM 35.7800 -77.7478 10° North 463 533 34,600 -950 Descending Washington Center
Sun 01:35:47 PM 35.9078 -77.7181 11° North 463 533 33,700 -908 Descending Washington Center
Sun 01:36:48 PM 36.0231 -77.6903 11° North 468 539 32,800 -950 Descending Washington Center
Sun 01:37:47 PM 36.1528 -77.6603 11° North 468 539 31,800 -950 Descending Washington Center
Sun 01:38:48 PM 36.2806 -77.6275 12° North 468 539 30,900 -934 Descending Washington Center
Sun 01:39:49 PM 36.4106 -77.5947 11° North 468 539 29,900 -942 Descending Washington Center
Sun 01:40:49 PM 36.5508 -77.5622 11° North 468 539 29,000 -458 Descending Washington Center
Sun 01:41:47 PM 36.6808 -77.5292 12° North 468 539 29,000 -51 Level Washington Center
Sun 01:42:47 PM 36.8106 -77.4961 12° North 468 539 28,900 -1,000 Descending Washington Center
Sun 01:43:47 PM 36.9425 -77.4656 10° North 468 539 27,000 -1,934 Descending Washington Center
Sun 01:44:48 PM 37.0703 -77.4322 12° North 468 539 25,000 -1,475 Descending Washington Center
Sun 01:45:49 PM 37.1939 -77.4014 11° North 463 533 24,000 -504 Descending Washington Center
Sun 01:46:47 PM 37.3133 -77.3703 12° North 450 518 24,000 -203 Level Washington Center
Sun 01:47:47 PM 37.4367 -77.3389 11° North 450 518 23,600 -500 Descending Washington Center
Sun 01:48:47 PM 37.5581 -77.3103 11° North 450 518 23,000 -298 Descending Washington Center
Sun 01:49:48 PM 37.6836 -77.2842 North 450 518 23,000  Level Washington Center
Sun 01:50:47 PM 37.8031 -77.2581 10° North 445 512 23,000 -200 Level Washington Center
Sun 01:51:48 PM 37.9242 -77.2344 North 445 512 22,600 -787 Descending Washington Center
Sun 01:52:49 PM 38.0414 -77.2106 North 439 505 21,400 -1,765 Descending Washington Center
Sun 01:53:47 PM 38.1628 -77.1842 10° North 439 505 19,100 -2,237 Descending Washington Center
Sun 01:54:47 PM 38.2778 -77.1575 10° North 428 493 17,000 -2,033 Descending Washington Center
Sun 01:55:48 PM 38.3844 -77.1333 10° North 405 466 15,000 -1,916 Descending Washington Center
Sun 01:56:46 PM 38.4628 -77.0419 42° Northeast 366 421 13,200 -1,613 Descending Washington Center
Sun 01:57:47 PM 38.5325 -76.9586 43° Northeast 359 413 11,800 -1,180 Descending Washington Center
Sun 01:58:48 PM 38.5936 -76.8825 44° Northeast 328 377 10,800 -984 Descending Washington Center
Sun 01:59:49 PM 38.6550 -76.8067 44° Northeast 313 360 9,800 -992 Descending Washington Center
Sun 02:00:49 PM 38.7142 -76.7278 46° Northeast 299 344 8,800 -1,169 Descending Washington Center
Sun 02:01:47 PM 38.7525 -76.6353 62° Northeast 299 344 7,500 -1,314 Descending Washington Center
Sun 02:02:34 PM 38.7833 -76.5667 60° Northeast 291 335 6,500 -833 Descending Potomac TRACON
Sun 02:03:35 PM 38.8500 -76.5000 38° Northeast 283 326 6,000 -694 Descending Potomac TRACON
Sun 02:04:35 PM 38.9333 -76.5000 360° North 273 314 5,100 -942 Descending Potomac TRACON
Sun 02:05:36 PM 39.0000 -76.4833 11° North 267 307 4,100 -992 Descending Potomac TRACON
Sun 02:06:36 PM 39.0833 -76.4667 North 266 306 3,100 -850 Descending Potomac TRACON
Sun 02:07:36 PM 39.1500 -76.4500 11° North 242 278 2,400 -550 Descending Potomac TRACON
Sun 02:08:36 PM 39.2000 -76.4333 14° North 211 243 2,000 -347 Descending Potomac TRACON
Sun 02:09:37 PM 39.2667 -76.4333 360° North 191 220 1,700 -248 Descending Potomac TRACON
Sun 02:10:37 PM 39.3000 -76.4500 339° North 176 203 1,500 -400 Descending Potomac TRACON
Sun 02:11:37 PM 39.3333 -76.4667 339° North 154 177 900 -600 Descending Potomac TRACON
Sun 02:12:37 PM 39.3333 -76.4333 90° East 148 170 300 -600 Descending Potomac TRACON
Sun 02:14:00 PM 39.3257 -76.4138 108° East  Level Estimated
Sun 02:21:00 PM 39.3257 -76.4138 108° East  Level Estimated
Sun 02:22:00 PM 39.3257 -76.4138 108° East  Level Estimated
Sun 02:23:00 PM 39.3257 -76.4138 108° East  Level Estimated
Sun 02:24:00 PM 39.3257 -76.4138 108° East  Level Estimated
Sun 02:25:00 PM 39.3257 -76.4138 108° East  Level Estimated
Sun 02:26:00 PM 39.3257 -76.4138 108° East  Level Estimated
Sun 02:27:00 PM 39.3257 -76.4138 108° East  Level Estimated
Sun 02:28:00 PM 39.3257 -76.4138 108° East  Level Estimated

Login

Don't have an account? Register now (free) for customized features, flight alerts, and more!